Pagrindinis puslapis
METAR-TAF:

METAR-TAF

Oro uostai :

Po, Prancūzija

platuma: 43-23N, ilguma: 000-25W, Aukštis: 188 m

Dabartinis oras

Ataskaita buvo paskelbta 20 minutes, ne 11:00 UTC
Vėjas 1 kt nuo kintamojo kryptimis
Temperatūra 10°C
Drėgmė 76%
Slėgis 1018 hPa
Matomumas 10 km arba daugiau
Išsisklaidę debesys ne aukštis 9600 ft
Su prošvaistėmis ne aukštis 20000 ft

METAR: LFBP 251100Z AUTO VRB01KT 9999 SCT096 BKN200 10/06 Q1018 NOSIG

Laikas: 12:20 (11:20 UTC)

Prognozė

Ataskaita buvo paskelbta 6 valandos ir 20 minutes, ne 05:00 UTC
Prognozė galioja nuo 25 metu 06 UTC su 26 metu 06 UTC
Vėjas 5 kt iš Rytų/Pietryčių
Matomumas 10 km arba daugiau
Su prošvaistėmis ne aukštis 9000 ft
Laikinai
nuo 25 metu 22 UTC su 26 metu 06 UTC
Matomumas: 4000 m
Su prošvaistėmis ne aukštis 1400 ft
Su prošvaistėmis ne aukštis 4000 ft
lietus

TAF: LFBP 250500Z 2506/2606 12005KT 9999 BKN090 TEMPO 2522/2606 4000 -RA BKN014 BKN040

Orai ataskaitas ir orų prognozės (METAR, TAF).

turimą stotys yra geltonos ir raudonos taškus žemėlapyje.

Perkelti pele per norėdami pamatyti stoties vardą.

Tada spustelėkite, norėdami matyti oro stebėjimo ir prognozės.

Norėdami pakeisti žemėlapį: spustelėkite ant žalios mygtukų su juodo kryžiaus žemyn,; žalią mygtuką su brūkšneliu, jei norite nutolinti; arba žalių rodyklių gretimoms žemėlapius.


METAR-TAF: